createdAt,value
2023-02-19T00:01:25.930Z,60.54
2023-02-19T00:04:00.095Z,60.57
2023-02-19T00:06:36.555Z,60.50
2023-02-19T00:09:11.202Z,60.52
2023-02-19T00:11:44.488Z,60.57
2023-02-19T00:14:21.470Z,60.60
2023-02-19T00:16:54.262Z,60.84
2023-02-19T00:19:27.068Z,60.80
2023-02-19T00:22:01.247Z,60.88
2023-02-19T00:24:33.971Z,60.94
2023-02-19T00:27:09.493Z,60.86
2023-02-19T00:29:44.166Z,60.85
2023-02-19T00:32:17.096Z,60.86
2023-02-19T00:34:52.770Z,60.80
2023-02-19T00:37:27.024Z,60.77
2023-02-19T00:39:59.853Z,60.79
2023-02-19T00:42:34.819Z,60.90
2023-02-19T00:45:11.234Z,60.78
2023-02-19T00:47:47.082Z,60.80
2023-02-19T00:50:19.994Z,60.71
2023-02-19T00:52:54.151Z,60.66
2023-02-19T00:55:26.996Z,60.71
2023-02-19T00:57:59.792Z,60.77
2023-02-19T01:00:35.622Z,60.77
2023-02-19T01:03:08.394Z,60.79
2023-02-19T01:05:41.166Z,60.88
2023-02-19T01:08:16.527Z,60.86
2023-02-19T01:10:52.822Z,60.91
2023-02-19T01:13:26.217Z,60.87
2023-02-19T01:16:07.253Z,60.88
2023-02-19T01:18:43.215Z,61.05
2023-02-19T01:21:19.638Z,61.10
2023-02-19T01:23:54.299Z,61.03
2023-02-19T01:26:31.780Z,61.10
2023-02-19T01:29:04.744Z,61.20
2023-02-19T01:31:38.926Z,61.22
2023-02-19T01:34:13.227Z,61.18
2023-02-19T01:36:48.499Z,61.32
2023-02-19T01:39:22.833Z,61.22
2023-02-19T01:41:58.685Z,61.15
2023-02-19T01:44:50.430Z,61.18
2023-02-19T01:47:25.575Z,61.16
2023-02-19T01:49:58.761Z,61.17
2023-02-19T01:52:33.361Z,61.25
2023-02-19T01:55:09.468Z,61.35
2023-02-19T01:57:45.002Z,61.19
2023-02-19T02:00:18.201Z,61.33
2023-02-19T02:02:54.693Z,61.26
2023-02-19T02:05:38.256Z,61.24
2023-02-19T02:08:29.117Z,61.20
2023-02-19T02:11:03.532Z,61.20
2023-02-19T02:13:39.043Z,61.32
2023-02-19T02:16:20.852Z,61.32
2023-02-19T02:19:08.618Z,61.23
2023-02-19T02:21:57.100Z,61.13
2023-02-19T02:24:38.509Z,61.11
2023-02-19T02:27:25.821Z,61.11
2023-02-19T02:30:25.439Z,61.05
2023-02-19T02:33:01.507Z,61.11
2023-02-19T02:35:41.010Z,61.08
2023-02-19T02:38:15.590Z,60.97
2023-02-19T02:40:48.935Z,61.02
2023-02-19T02:43:23.626Z,61.03
2023-02-19T02:45:58.728Z,61.02
2023-02-19T02:48:41.374Z,60.94
2023-02-19T02:51:17.123Z,61.04
2023-02-19T02:54:25.619Z,61.06
2023-02-19T02:57:04.755Z,61.08
2023-02-19T02:59:42.862Z,61.12
2023-02-19T03:02:19.088Z,61.13
2023-02-19T03:05:15.837Z,61.03
2023-02-19T03:07:51.552Z,61.11
2023-02-19T03:10:28.272Z,61.00
2023-02-19T03:13:21.127Z,61.13
2023-02-19T03:16:15.185Z,61.04
2023-02-19T03:19:11.671Z,61.08
2023-02-19T03:21:47.212Z,61.06
2023-02-19T03:24:40.074Z,61.06
2023-02-19T03:27:13.712Z,60.93
2023-02-19T03:29:52.758Z,61.02
2023-02-19T03:32:27.010Z,61.01
2023-02-19T03:35:07.463Z,61.08
2023-02-19T03:37:43.114Z,61.01
2023-02-19T03:40:17.976Z,61.07
2023-02-19T03:42:57.751Z,61.13
2023-02-19T03:45:41.659Z,61.06
2023-02-19T03:48:25.258Z,61.00
2023-02-19T03:51:06.659Z,61.06
2023-02-19T03:53:47.300Z,61.04
2023-02-19T03:56:23.431Z,61.20
2023-02-19T03:58:58.858Z,61.20
2023-02-19T04:01:33.576Z,61.16
2023-02-19T04:04:10.449Z,61.24
2023-02-19T04:06:52.742Z,61.21
2023-02-19T04:09:28.558Z,61.16
2023-02-19T04:12:12.168Z,61.22
2023-02-19T04:14:49.589Z,61.28
2023-02-19T04:17:24.920Z,61.29
2023-02-19T04:20:00.144Z,61.16
2023-02-19T04:22:36.169Z,61.18
2023-02-19T04:25:14.873Z,61.30
2023-02-19T04:27:50.930Z,61.22
2023-02-19T04:30:23.766Z,61.15
2023-02-19T04:32:58.023Z,61.43
2023-02-19T04:35:32.165Z,61.33
2023-02-19T04:38:07.994Z,61.18
2023-02-19T04:40:40.686Z,61.27
2023-02-19T04:43:16.593Z,61.36
2023-02-19T04:45:49.516Z,61.38
2023-02-19T04:48:23.489Z,61.35
2023-02-19T04:50:58.324Z,61.28
2023-02-19T04:53:32.494Z,61.36
2023-02-19T04:56:10.538Z,61.40
2023-02-19T04:58:44.634Z,61.34
2023-02-19T05:01:17.402Z,61.40
2023-02-19T05:03:50.276Z,61.36
2023-02-19T05:06:23.101Z,61.39
2023-02-19T05:09:00.214Z,61.37
2023-02-19T05:11:35.691Z,61.41
2023-02-19T05:14:08.627Z,61.40
2023-02-19T05:16:41.602Z,61.47
2023-02-19T05:19:14.319Z,61.50
2023-02-19T05:21:47.145Z,61.46
2023-02-19T05:24:24.960Z,61.38
2023-02-19T05:26:57.772Z,61.40
2023-02-19T05:29:31.751Z,61.41
2023-02-19T05:32:04.556Z,61.53
2023-02-19T05:34:37.550Z,61.40
2023-02-19T05:37:11.341Z,61.49
2023-02-19T05:39:45.471Z,61.51
2023-02-19T05:42:20.108Z,61.50
2023-02-19T05:44:52.799Z,61.44
2023-02-19T05:47:25.677Z,61.52
2023-02-19T05:49:58.621Z,61.54
2023-02-19T05:52:35.381Z,61.44
2023-02-19T05:55:10.100Z,61.46
2023-02-19T05:57:43.809Z,61.55
2023-02-19T06:00:23.873Z,61.45
2023-02-19T06:02:56.775Z,61.46
2023-02-19T06:05:29.603Z,61.57
2023-02-19T06:08:05.380Z,61.54
2023-02-19T06:10:41.309Z,61.57
2023-02-19T06:13:15.019Z,61.52
2023-02-19T06:15:48.595Z,61.64
2023-02-19T06:18:23.211Z,61.55
2023-02-19T06:21:02.886Z,61.48
2023-02-19T06:23:36.011Z,61.32
2023-02-19T06:26:15.902Z,61.35
2023-02-19T06:28:49.073Z,61.28
2023-02-19T06:31:22.939Z,61.22
2023-02-19T06:33:56.212Z,61.21
2023-02-19T06:36:29.128Z,61.28
2023-02-19T06:39:02.173Z,61.20
2023-02-19T06:41:37.977Z,61.22
2023-02-19T06:44:12.692Z,61.40
2023-02-19T06:46:46.437Z,61.27
2023-02-19T06:49:19.255Z,61.25
2023-02-19T06:51:52.079Z,61.38
2023-02-19T06:54:25.809Z,61.30
2023-02-19T06:57:01.504Z,61.36
2023-02-19T06:59:36.466Z,61.42
2023-02-19T07:02:11.557Z,61.35
2023-02-19T07:04:44.395Z,61.32
2023-02-19T07:07:17.199Z,61.46
2023-02-19T07:09:52.683Z,61.38
2023-02-19T07:12:26.918Z,61.43
2023-02-19T07:15:01.999Z,61.35
2023-02-19T07:17:35.187Z,61.42
2023-02-19T07:20:08.042Z,61.30
2023-02-19T07:22:43.199Z,61.41
2023-02-19T07:25:16.152Z,61.31
2023-02-19T07:27:50.400Z,61.29
2023-02-19T07:30:25.031Z,61.30
2023-02-19T07:32:57.904Z,61.19
2023-02-19T07:35:30.678Z,61.42
2023-02-19T07:38:08.080Z,61.28
2023-02-19T07:40:42.098Z,61.29
2023-02-19T07:43:20.588Z,61.26
2023-02-19T07:45:53.868Z,61.09
2023-02-19T07:48:29.439Z,61.15
2023-02-19T07:51:02.464Z,61.07
2023-02-19T07:53:35.641Z,60.92
2023-02-19T07:56:09.386Z,60.94
2023-02-19T07:58:46.043Z,60.98
2023-02-19T08:01:19.740Z,61.00
2023-02-19T08:03:51.731Z,60.89
2023-02-19T08:06:26.240Z,60.93
2023-02-19T08:09:22.720Z,60.96
2023-02-19T08:12:13.098Z,61.05
2023-02-19T08:14:48.430Z,60.82
2023-02-19T08:17:24.273Z,60.96
2023-02-19T08:19:57.125Z,60.81
2023-02-19T08:22:29.968Z,60.72
2023-02-19T08:25:02.810Z,60.77
2023-02-19T08:27:35.655Z,60.72
2023-02-19T08:30:13.300Z,60.66
2023-02-19T08:32:48.867Z,60.53
2023-02-19T08:35:22.292Z,60.43
2023-02-19T08:37:56.741Z,60.47
2023-02-19T08:40:32.356Z,60.39
2023-02-19T08:43:08.148Z,60.28
2023-02-19T08:45:45.762Z,60.14
2023-02-19T08:48:18.693Z,60.21
2023-02-19T08:50:55.535Z,60.04
2023-02-19T08:53:30.060Z,60.14
2023-02-19T08:56:05.772Z,59.95
2023-02-19T08:58:38.639Z,60.22
2023-02-19T09:01:15.491Z,59.97
2023-02-19T09:03:49.251Z,60.02
2023-02-19T09:06:22.407Z,59.66
2023-02-19T09:08:55.355Z,59.57
2023-02-19T09:11:28.682Z,59.23
2023-02-19T09:14:06.062Z,59.19
2023-02-19T09:16:40.397Z,58.67
2023-02-19T09:19:15.768Z,58.55
2023-02-19T09:21:51.925Z,58.47
2023-02-19T09:24:25.607Z,57.86
2023-02-19T09:26:58.531Z,57.43
2023-02-19T09:29:31.482Z,57.45
2023-02-19T09:32:05.857Z,57.56
2023-02-19T09:34:41.895Z,57.77
2023-02-19T09:37:14.775Z,57.85
2023-02-19T09:39:50.477Z,58.26
2023-02-19T09:42:32.834Z,58.36
2023-02-19T09:45:06.081Z,58.70
2023-02-19T09:47:40.380Z,58.92
2023-02-19T09:50:16.045Z,59.02
2023-02-19T09:52:55.571Z,59.10
2023-02-19T09:55:32.054Z,57.70
2023-02-19T09:58:09.574Z,57.64
2023-02-19T10:00:42.402Z,57.78
2023-02-19T10:03:24.330Z,57.61
2023-02-19T10:05:57.576Z,58.01
2023-02-19T10:08:32.992Z,58.06
2023-02-19T10:11:06.987Z,58.22
2023-02-19T10:13:44.182Z,58.70
2023-02-19T10:16:27.521Z,58.83
2023-02-19T10:19:04.937Z,58.86
2023-02-19T10:21:41.061Z,59.18
2023-02-19T10:24:20.153Z,59.29
2023-02-19T10:26:56.332Z,59.44
2023-02-19T10:29:34.284Z,59.61
2023-02-19T10:32:13.809Z,59.80
2023-02-19T10:34:48.158Z,59.94
2023-02-19T10:37:20.983Z,60.11
2023-02-19T10:39:53.932Z,60.10
2023-02-19T10:42:26.867Z,60.11
2023-02-19T10:45:01.982Z,60.18
2023-02-19T10:47:37.894Z,60.12
2023-02-19T10:50:27.456Z,60.11
2023-02-19T10:53:02.013Z,59.75
2023-02-19T10:55:37.817Z,59.73
2023-02-19T10:58:25.353Z,59.68
2023-02-19T11:01:11.713Z,59.59
2023-02-19T11:03:58.183Z,59.64
2023-02-19T11:06:34.717Z,59.53
2023-02-19T11:09:19.072Z,59.56
2023-02-19T11:11:53.339Z,59.00
2023-02-19T11:14:26.762Z,57.76
2023-02-19T11:17:00.547Z,57.97
2023-02-19T11:19:37.304Z,57.53
2023-02-19T11:22:31.044Z,57.37
2023-02-19T11:25:06.425Z,56.80
2023-02-19T11:27:54.589Z,57.09
2023-02-19T11:30:42.995Z,56.74
2023-02-19T11:33:25.518Z,57.25
2023-02-19T11:36:13.182Z,57.17
2023-02-19T11:38:47.705Z,57.63
2023-02-19T11:41:25.702Z,58.02
2023-02-19T11:44:08.020Z,58.29
2023-02-19T11:46:46.161Z,58.67
2023-02-19T11:49:27.619Z,58.72
2023-02-19T11:52:07.552Z,58.69
2023-02-19T11:55:09.322Z,58.82
2023-02-19T11:57:45.592Z,58.74
2023-02-19T12:00:21.882Z,58.67
2023-02-19T12:03:06.649Z,58.33
2023-02-19T12:05:46.625Z,57.79
2023-02-19T12:08:34.215Z,58.01
2023-02-19T12:11:25.649Z,57.73
2023-02-19T12:14:15.390Z,57.94
2023-02-19T12:16:52.897Z,56.32
2023-02-19T12:19:43.409Z,54.53
2023-02-19T12:22:21.983Z,55.17
2023-02-19T12:25:17.931Z,55.52
2023-02-19T12:28:05.438Z,54.14
2023-02-19T12:31:00.315Z,53.25
2023-02-19T12:33:51.604Z,51.98
2023-02-19T12:36:30.837Z,52.67
2023-02-19T12:39:08.685Z,51.67
2023-02-19T12:41:57.138Z,50.03
2023-02-19T12:44:36.767Z,49.31
2023-02-19T12:47:18.061Z,50.62
2023-02-19T12:50:03.112Z,51.83
2023-02-19T12:52:42.213Z,53.30
2023-02-19T12:55:26.820Z,52.76
2023-02-19T12:58:12.608Z,52.12
2023-02-19T13:00:50.572Z,51.55
2023-02-19T13:03:29.310Z,50.78
2023-02-19T13:06:13.679Z,50.62
2023-02-19T13:09:06.331Z,50.35
2023-02-19T13:11:46.057Z,49.99
2023-02-19T13:14:22.834Z,50.41
2023-02-19T13:17:01.067Z,50.25
2023-02-19T13:19:35.495Z,50.63
2023-02-19T13:22:42.235Z,52.17
2023-02-19T13:25:16.854Z,53.77
2023-02-19T13:27:57.022Z,54.75
2023-02-19T13:30:38.755Z,56.06
2023-02-19T13:33:34.380Z,57.14
2023-02-19T13:36:13.037Z,57.28
2023-02-19T13:38:49.103Z,57.34
2023-02-19T13:41:27.735Z,57.54
2023-02-19T13:44:02.482Z,56.63
2023-02-19T13:46:37.921Z,55.98
2023-02-19T13:49:29.057Z,55.35
2023-02-19T13:52:03.719Z,54.50
2023-02-19T13:54:40.490Z,54.72
2023-02-19T13:57:31.446Z,55.27
2023-02-19T14:00:24.275Z,55.51
2023-02-19T14:03:12.118Z,56.86
2023-02-19T14:05:58.630Z,57.96
2023-02-19T14:08:55.221Z,59.02
2023-02-19T14:11:58.055Z,59.97
2023-02-19T14:14:37.022Z,60.38
2023-02-19T14:17:24.592Z,61.02
2023-02-19T14:19:58.651Z,60.98
2023-02-19T14:23:04.386Z,61.21
2023-02-19T14:25:58.309Z,61.24
2023-02-19T14:28:36.160Z,61.23
2023-02-19T14:31:15.552Z,60.95
2023-02-19T14:33:52.140Z,61.02
2023-02-19T14:36:32.511Z,60.86
2023-02-19T14:39:07.048Z,61.08
2023-02-19T14:41:41.468Z,61.01
2023-02-19T14:44:17.331Z,61.13
2023-02-19T14:46:58.954Z,61.16
2023-02-19T14:49:36.049Z,61.11
2023-02-19T14:52:13.690Z,61.06
2023-02-19T14:54:50.855Z,61.07
2023-02-19T14:57:26.705Z,61.17
2023-02-19T15:00:00.535Z,61.27
2023-02-19T15:02:43.442Z,61.09
2023-02-19T15:05:16.787Z,61.00
2023-02-19T15:07:49.815Z,60.93
2023-02-19T15:10:24.280Z,60.98
2023-02-19T15:12:58.342Z,60.99
2023-02-19T15:15:33.048Z,61.16
2023-02-19T15:18:07.794Z,61.01
2023-02-19T15:20:42.931Z,60.99
2023-02-19T15:23:19.830Z,61.08
2023-02-19T15:25:58.095Z,61.04
2023-02-19T15:28:34.575Z,61.02
2023-02-19T15:31:16.872Z,61.01
2023-02-19T15:33:52.048Z,61.02
2023-02-19T15:36:27.270Z,61.04
2023-02-19T15:39:14.796Z,61.30
2023-02-19T15:41:51.928Z,61.09
2023-02-19T15:44:36.633Z,61.18
2023-02-19T15:47:13.158Z,61.13
2023-02-19T15:49:53.560Z,61.17
2023-02-19T15:52:33.832Z,61.12
2023-02-19T15:55:12.939Z,61.06
2023-02-19T15:57:49.216Z,61.00
2023-02-19T16:00:24.553Z,61.09
2023-02-19T16:02:58.386Z,60.98
2023-02-19T16:05:39.376Z,60.93
2023-02-19T16:08:19.655Z,61.11
2023-02-19T16:10:59.544Z,61.13
2023-02-19T16:13:33.595Z,61.19
2023-02-19T16:16:16.251Z,61.21
2023-02-19T16:18:50.922Z,61.13
2023-02-19T16:21:27.193Z,61.26
2023-02-19T16:24:07.878Z,61.25
2023-02-19T16:26:41.346Z,61.24
2023-02-19T16:29:18.656Z,61.32
2023-02-19T16:31:52.566Z,61.40
2023-02-19T16:34:34.274Z,61.37
2023-02-19T16:37:25.102Z,61.40
2023-02-19T16:40:19.252Z,61.38
2023-02-19T16:43:26.640Z,61.51
2023-02-19T16:46:00.566Z,61.38
2023-02-19T16:48:33.444Z,61.41
2023-02-19T16:51:07.127Z,61.29
2023-02-19T16:53:39.918Z,61.43
2023-02-19T16:56:18.548Z,61.44
2023-02-19T16:58:51.622Z,61.42
2023-02-19T17:01:24.719Z,61.38
2023-02-19T17:04:01.728Z,61.40
2023-02-19T17:06:34.817Z,61.34
2023-02-19T17:09:08.538Z,61.45
2023-02-19T17:11:42.639Z,61.35
2023-02-19T17:14:15.367Z,61.45
2023-02-19T17:16:48.196Z,61.38
2023-02-19T17:19:22.301Z,61.35
2023-02-19T17:21:55.025Z,61.38
2023-02-19T17:24:27.788Z,61.38
2023-02-19T17:27:02.085Z,61.46
2023-02-19T17:29:37.096Z,61.53
2023-02-19T17:32:10.056Z,61.47
2023-02-19T17:34:42.915Z,61.40
2023-02-19T17:37:15.763Z,61.43
2023-02-19T17:39:48.566Z,61.60
2023-02-19T17:42:23.547Z,61.35
2023-02-19T17:44:56.795Z,61.40
2023-02-19T17:47:29.537Z,61.32
2023-02-19T17:50:02.401Z,61.41
2023-02-19T17:52:35.149Z,61.35
2023-02-19T17:55:08.119Z,61.34
2023-02-19T17:57:42.302Z,61.40
2023-02-19T18:00:15.802Z,61.40
2023-02-19T18:02:48.643Z,61.36
2023-02-19T18:05:21.357Z,61.41
2023-02-19T18:07:54.199Z,61.35
2023-02-19T18:10:27.127Z,61.41
2023-02-19T18:13:01.238Z,61.43
2023-02-19T18:15:33.923Z,61.36
2023-02-19T18:18:06.729Z,61.38
2023-02-19T18:20:39.445Z,61.44
2023-02-19T18:23:12.276Z,61.47
2023-02-19T18:25:47.292Z,61.50
2023-02-19T18:28:21.551Z,61.55
2023-02-19T18:30:54.626Z,61.47
2023-02-19T18:33:27.604Z,61.44
2023-02-19T18:36:00.317Z,61.53
2023-02-19T18:38:33.195Z,61.45
2023-02-19T18:41:06.149Z,61.51
2023-02-19T18:43:41.313Z,61.59
2023-02-19T18:46:14.148Z,61.57
2023-02-19T18:48:47.385Z,61.64
2023-02-19T18:51:23.477Z,61.60
2023-02-19T18:53:56.222Z,61.58
2023-02-19T18:56:30.552Z,61.57
2023-02-19T18:59:04.697Z,61.50
2023-02-19T19:01:38.037Z,61.55
2023-02-19T19:04:10.837Z,61.55
2023-02-19T19:06:43.623Z,61.50
2023-02-19T19:09:16.385Z,61.47
2023-02-19T19:11:49.147Z,61.52
2023-02-19T19:14:23.264Z,61.50
2023-02-19T19:16:56.046Z,61.53
2023-02-19T19:19:28.830Z,61.42
2023-02-19T19:22:01.582Z,61.44
2023-02-19T19:24:34.309Z,61.55
2023-02-19T19:27:07.373Z,61.49
2023-02-19T19:29:44.321Z,61.47
2023-02-19T19:32:17.257Z,61.50
2023-02-19T19:34:49.972Z,61.40
2023-02-19T19:37:22.751Z,61.49
2023-02-19T19:39:55.516Z,61.57
2023-02-19T19:42:28.346Z,61.55
2023-02-19T19:45:05.502Z,61.50
2023-02-19T19:47:38.280Z,61.49
2023-02-19T19:50:12.150Z,61.51
2023-02-19T19:52:45.187Z,61.49
2023-02-19T19:55:18.068Z,61.43
2023-02-19T19:57:50.828Z,61.45
2023-02-19T20:00:25.136Z,61.63
2023-02-19T20:02:57.984Z,61.49
2023-02-19T20:05:30.784Z,61.43
2023-02-19T20:08:03.529Z,61.45
2023-02-19T20:10:36.285Z,61.50
2023-02-19T20:13:09.068Z,61.41
2023-02-19T20:15:43.246Z,61.41
2023-02-19T20:18:16.128Z,61.48
2023-02-19T20:20:48.894Z,61.45
2023-02-19T20:23:21.670Z,61.40
2023-02-19T20:25:54.395Z,61.43
2023-02-19T20:28:27.196Z,61.46
2023-02-19T20:31:01.331Z,61.42
2023-02-19T20:33:34.057Z,61.52
2023-02-19T20:36:07.278Z,61.51
2023-02-19T20:38:40.107Z,61.45
2023-02-19T20:41:13.117Z,61.54
2023-02-19T20:43:45.953Z,61.54
2023-02-19T20:46:20.845Z,61.57
2023-02-19T20:48:53.722Z,61.58
2023-02-19T20:51:26.438Z,61.52
2023-02-19T20:54:03.719Z,61.57
2023-02-19T20:56:43.507Z,61.49
2023-02-19T20:59:17.248Z,61.49
2023-02-19T21:01:51.453Z,61.52
2023-02-19T21:04:26.143Z,61.55
2023-02-19T21:06:59.029Z,61.51
2023-02-19T21:09:32.206Z,61.58
2023-02-19T21:12:05.174Z,61.53
2023-02-19T21:14:38.048Z,61.58
2023-02-19T21:17:12.236Z,61.49
2023-02-19T21:19:44.972Z,61.58
2023-02-19T21:22:17.734Z,61.70
2023-02-19T21:24:52.089Z,61.51
2023-02-19T21:27:24.925Z,61.51
2023-02-19T21:29:57.819Z,61.48
2023-02-19T21:32:32.018Z,61.51
2023-02-19T21:35:05.909Z,61.47
2023-02-19T21:37:42.073Z,61.41
2023-02-19T21:40:15.033Z,61.53
2023-02-19T21:42:47.837Z,61.38
2023-02-19T21:45:20.640Z,61.47
2023-02-19T21:47:57.602Z,61.53
2023-02-19T21:50:30.357Z,61.49
2023-02-19T21:53:05.452Z,61.52
2023-02-19T21:55:38.635Z,61.50
2023-02-19T21:58:12.494Z,61.51
2023-02-19T22:00:45.315Z,61.58
2023-02-19T22:03:19.469Z,61.67
2023-02-19T22:05:52.253Z,61.65
2023-02-19T22:08:25.052Z,61.61
2023-02-19T22:10:59.778Z,61.59
2023-02-19T22:13:32.558Z,61.61
2023-02-19T22:16:05.513Z,61.61
2023-02-19T22:18:42.197Z,61.59
2023-02-19T22:21:15.091Z,61.62
2023-02-19T22:23:48.207Z,61.63
2023-02-19T22:26:21.594Z,61.60
2023-02-19T22:28:54.681Z,61.55
2023-02-19T22:31:28.896Z,61.63
2023-02-19T22:34:05.320Z,61.51
2023-02-19T22:36:38.889Z,61.56
2023-02-19T22:39:17.532Z,61.59
2023-02-19T22:41:50.736Z,61.53
2023-02-19T22:44:23.713Z,61.54
2023-02-19T22:46:57.068Z,61.49
2023-02-19T22:49:31.222Z,61.61
2023-02-19T22:52:05.426Z,61.52
2023-02-19T22:54:38.776Z,61.60
2023-02-19T22:57:11.474Z,61.52
2023-02-19T22:59:44.299Z,61.39
2023-02-19T23:02:18.568Z,61.43
2023-02-19T23:04:54.625Z,61.34
2023-02-19T23:07:27.558Z,61.29
2023-02-19T23:10:00.391Z,61.27
2023-02-19T23:12:33.290Z,61.17
2023-02-19T23:15:06.581Z,61.20
2023-02-19T23:17:39.361Z,61.19
2023-02-19T23:20:14.042Z,61.23
2023-02-19T23:22:46.785Z,61.09
2023-02-19T23:25:19.697Z,61.03
2023-02-19T23:27:52.840Z,61.04
2023-02-19T23:30:26.115Z,60.94
2023-02-19T23:33:00.786Z,60.92
2023-02-19T23:35:35.081Z,60.90
2023-02-19T23:38:09.812Z,60.91
2023-02-19T23:40:42.578Z,60.83
2023-02-19T23:43:15.305Z,60.87
2023-02-19T23:45:48.327Z,60.91
2023-02-19T23:48:21.225Z,60.70
2023-02-19T23:50:55.318Z,60.81
2023-02-19T23:53:28.283Z,60.77
2023-02-19T23:56:01.009Z,60.74
2023-02-19T23:58:33.784Z,60.79
